createdAt,value
2018-03-16T00:00:38.238Z,97115.38
2018-03-16T00:03:05.676Z,97112.45
2018-03-16T00:05:33.130Z,97119.92
2018-03-16T00:08:00.571Z,97116.20
2018-03-16T00:10:28.026Z,97121.95
2018-03-16T00:12:55.463Z,97116.32
2018-03-16T00:15:22.909Z,97119.51
2018-03-16T00:17:50.392Z,97116.70
2018-03-16T00:20:17.856Z,97122.16
2018-03-16T00:22:45.303Z,97124.41
2018-03-16T00:25:12.757Z,97126.31
2018-03-16T00:27:40.210Z,97124.17
2018-03-16T00:30:07.652Z,97127.33
2018-03-16T00:32:35.104Z,97120.83
2018-03-16T00:35:02.552Z,97126.02
2018-03-16T00:37:30.041Z,97125.65
2018-03-16T00:39:57.479Z,97132.77
2018-03-16T00:42:24.933Z,97130.47
2018-03-16T00:44:52.396Z,97131.09
2018-03-16T00:47:19.848Z,97130.41
2018-03-16T00:49:47.283Z,97129.72
2018-03-16T00:52:14.756Z,97129.47
2018-03-16T00:54:42.222Z,97132.14
2018-03-16T00:57:09.683Z,97135.44
2018-03-16T00:59:37.128Z,97132.25
2018-03-16T01:02:04.589Z,97130.94
2018-03-16T01:04:32.032Z,97137.22
2018-03-16T01:06:59.485Z,97140.61
2018-03-16T01:09:26.932Z,97141.91
2018-03-16T01:11:54.389Z,97151.53
2018-03-16T01:14:21.827Z,97145.35
2018-03-16T01:16:49.275Z,97153.33
2018-03-16T01:19:16.716Z,97151.19
2018-03-16T01:21:44.173Z,97144.36
2018-03-16T01:24:11.607Z,97154.55
2018-03-16T01:26:39.121Z,97154.91
2018-03-16T01:29:06.571Z,97149.27
2018-03-16T01:31:34.016Z,97153.41
2018-03-16T01:34:01.463Z,97154.34
2018-03-16T01:36:28.920Z,97146.20
2018-03-16T01:38:56.370Z,97148.48
2018-03-16T01:41:23.806Z,97150.41
2018-03-16T01:43:52.062Z,97149.20
2018-03-16T01:46:19.535Z,97155.94
2018-03-16T01:48:46.992Z,97160.14
2018-03-16T01:51:14.424Z,97155.95
2018-03-16T01:53:41.872Z,97153.28
2018-03-16T01:56:09.325Z,97162.25
2018-03-16T01:58:36.781Z,97157.49
2018-03-16T02:01:04.897Z,97157.02
2018-03-16T02:03:32.349Z,97163.55
2018-03-16T02:05:59.799Z,97164.06
2018-03-16T02:08:27.247Z,97169.27
2018-03-16T02:10:55.010Z,97173.81
2018-03-16T02:13:22.465Z,97166.98
2018-03-16T02:15:49.914Z,97166.64
2018-03-16T02:18:17.369Z,97161.76
2018-03-16T02:20:44.808Z,97168.73
2018-03-16T02:23:12.264Z,97163.56
2018-03-16T02:25:39.701Z,97164.02
2018-03-16T02:28:07.161Z,97167.83
2018-03-16T02:30:34.601Z,97169.34
2018-03-16T02:33:02.123Z,97166.67
2018-03-16T02:35:29.519Z,97164.14
2018-03-16T02:37:56.977Z,97167.25
2018-03-16T02:40:24.413Z,97164.38
2018-03-16T02:42:51.859Z,97177.33
2018-03-16T02:45:19.304Z,97173.25
2018-03-16T02:47:46.746Z,97174.16
2018-03-16T02:50:14.211Z,97168.27
2018-03-16T02:52:41.657Z,97168.03
2018-03-16T02:55:09.130Z,97150.94
2018-03-16T02:57:36.576Z,97149.75
2018-03-16T03:00:04.019Z,97162.20
2018-03-16T03:02:31.449Z,97157.80
2018-03-16T03:04:58.903Z,97161.74
2018-03-16T03:07:26.344Z,97160.42
2018-03-16T03:09:53.793Z,97161.44
2018-03-16T03:12:21.232Z,97163.77
2018-03-16T03:14:48.740Z,97169.19
2018-03-16T03:17:16.430Z,97173.66
2018-03-16T03:19:43.872Z,97172.46
2018-03-16T03:22:11.308Z,97169.34
2018-03-16T03:24:39.234Z,97173.80
2018-03-16T03:27:06.677Z,97170.72
2018-03-16T03:29:34.124Z,97176.42
2018-03-16T03:32:01.600Z,97174.77
2018-03-16T03:34:29.034Z,97174.58
2018-03-16T03:36:56.482Z,97175.25
2018-03-16T03:39:24.017Z,97177.24
2018-03-16T03:41:51.453Z,97175.86
2018-03-16T03:44:18.921Z,97181.37
2018-03-16T03:46:46.366Z,97182.05
2018-03-16T03:49:13.805Z,97177.84
2018-03-16T03:51:41.274Z,97175.64
2018-03-16T03:54:08.741Z,97183.61
2018-03-16T03:56:36.191Z,97180.27
2018-03-16T03:59:03.629Z,97184.73
2018-03-16T04:01:31.086Z,97187.67
2018-03-16T04:03:58.567Z,97175.92
2018-03-16T04:06:26.008Z,97179.86
2018-03-16T04:08:53.439Z,97176.43
2018-03-16T04:11:20.884Z,97184.13
2018-03-16T04:13:48.314Z,97175.69
2018-03-16T04:16:15.767Z,97179.80
2018-03-16T04:18:43.204Z,97181.64
2018-03-16T04:21:10.647Z,97175.11
2018-03-16T04:23:38.072Z,97173.59
2018-03-16T04:26:05.517Z,97182.26
2018-03-16T04:28:32.952Z,97179.28
2018-03-16T04:31:00.396Z,97187.69
2018-03-16T04:33:27.999Z,97185.75
2018-03-16T04:35:55.503Z,97185.14
2018-03-16T04:38:22.973Z,97187.53
2018-03-16T04:40:50.428Z,97186.05
2018-03-16T04:43:17.865Z,97187.95
2018-03-16T04:45:45.303Z,97191.60
2018-03-16T04:48:12.747Z,97194.69
2018-03-16T04:50:40.221Z,97186.00
2018-03-16T04:53:07.662Z,97186.17
2018-03-16T04:55:35.096Z,97182.80
2018-03-16T04:58:02.548Z,97185.21
2018-03-16T05:00:29.993Z,97179.30
2018-03-16T05:02:57.451Z,97179.59
2018-03-16T05:05:24.892Z,97189.13
2018-03-16T05:07:52.336Z,97188.55
2018-03-16T05:10:19.781Z,97190.00
2018-03-16T05:12:47.228Z,97190.70
2018-03-16T05:15:14.651Z,97188.09
2018-03-16T05:17:42.092Z,97189.92
2018-03-16T05:20:09.530Z,97194.59
2018-03-16T05:22:36.977Z,97193.39
2018-03-16T05:25:04.413Z,97197.57
2018-03-16T05:27:33.010Z,97195.16
2018-03-16T05:30:00.444Z,97198.76
2018-03-16T05:32:27.890Z,97201.30
2018-03-16T05:34:55.332Z,97203.00
2018-03-16T05:37:22.794Z,97205.95
2018-03-16T05:39:50.243Z,97206.24
2018-03-16T05:42:17.679Z,97206.58
2018-03-16T05:44:45.122Z,97204.24
2018-03-16T05:47:12.567Z,97206.59
2018-03-16T05:49:40.005Z,97208.24
2018-03-16T05:52:07.437Z,97205.77
2018-03-16T05:54:34.875Z,97208.18
2018-03-16T05:57:02.321Z,97213.12
2018-03-16T05:59:29.748Z,97211.89
2018-03-16T06:01:57.176Z,97212.14
2018-03-16T06:04:24.636Z,97220.83
2018-03-16T06:06:52.074Z,97215.16
2018-03-16T06:09:19.530Z,97222.47
2018-03-16T06:11:47.046Z,97231.45
2018-03-16T06:14:14.492Z,97229.11
2018-03-16T06:16:41.932Z,97229.72
2018-03-16T06:19:09.396Z,97228.59
2018-03-16T06:21:36.837Z,97236.75
2018-03-16T06:24:04.275Z,97236.25
2018-03-16T06:26:31.719Z,97234.79
2018-03-16T06:28:59.173Z,97238.77
2018-03-16T06:31:26.609Z,97243.64
2018-03-16T06:33:54.072Z,97244.48
2018-03-16T06:36:21.511Z,97248.52
2018-03-16T06:38:48.954Z,97254.00
2018-03-16T06:41:16.796Z,97249.69
2018-03-16T06:43:44.240Z,97256.53
2018-03-16T06:46:11.674Z,97260.20
2018-03-16T06:48:39.122Z,97255.09
2018-03-16T06:51:06.554Z,97253.06
2018-03-16T06:53:34.018Z,97258.00
2018-03-16T06:56:01.457Z,97269.53
2018-03-16T06:58:28.947Z,97266.94
2018-03-16T07:00:56.357Z,97268.48
2018-03-16T07:03:23.817Z,97274.08
2018-03-16T07:05:51.261Z,97277.37
2018-03-16T07:08:18.701Z,97275.11
2018-03-16T07:10:46.139Z,97278.19
2018-03-16T07:13:13.613Z,97281.97
2018-03-16T07:15:41.071Z,97288.56
2018-03-16T07:18:08.524Z,97291.31
2018-03-16T07:20:35.976Z,97292.47
2018-03-16T07:23:03.425Z,97299.03
2018-03-16T07:25:30.880Z,97297.15
2018-03-16T07:27:58.312Z,97305.84
2018-03-16T07:30:25.752Z,97299.66
2018-03-16T07:32:53.205Z,97301.64
2018-03-16T07:35:20.642Z,97303.31
2018-03-16T07:37:48.077Z,97305.86
2018-03-16T07:40:15.523Z,97309.08
2018-03-16T07:42:42.964Z,97309.94
2018-03-16T07:45:10.405Z,97310.16
2018-03-16T07:47:37.855Z,97307.83
2018-03-16T07:50:05.312Z,97310.73
2018-03-16T07:52:32.760Z,97321.13
2018-03-16T07:55:00.213Z,97317.77
2018-03-16T07:57:27.660Z,97325.61
2018-03-16T07:59:55.129Z,97332.34
2018-03-16T08:02:22.572Z,97338.12
2018-03-16T08:04:50.029Z,97330.70
2018-03-16T08:07:17.484Z,97339.38
2018-03-16T08:09:44.931Z,97338.54
2018-03-16T08:12:12.376Z,97335.63
2018-03-16T08:14:39.817Z,97335.02
2018-03-16T08:17:07.264Z,97338.97
2018-03-16T08:19:34.696Z,97344.59
2018-03-16T08:22:02.173Z,97338.38
2018-03-16T08:24:29.649Z,97342.08
2018-03-16T08:26:57.122Z,97340.28
2018-03-16T08:29:24.581Z,97337.75
2018-03-16T08:31:52.041Z,97331.19
2018-03-16T08:34:19.503Z,97328.23
2018-03-16T08:36:46.985Z,97333.78
2018-03-16T08:39:14.431Z,97331.77
2018-03-16T08:41:41.877Z,97331.16
2018-03-16T08:44:09.311Z,97333.52
2018-03-16T08:46:36.773Z,97334.93
2018-03-16T08:49:04.229Z,97334.22
2018-03-16T08:51:31.680Z,97336.97
2018-03-16T08:53:59.235Z,97329.02
2018-03-16T08:56:26.683Z,97333.39
2018-03-16T08:58:54.128Z,97336.22
2018-03-16T09:01:21.581Z,97328.64
2018-03-16T09:03:49.040Z,97332.61
2018-03-16T09:06:16.509Z,97335.49
2018-03-16T09:08:43.968Z,97337.57
2018-03-16T09:11:11.424Z,97332.77
2018-03-16T09:13:38.877Z,97337.45
2018-03-16T09:16:06.332Z,97343.15
2018-03-16T09:18:33.826Z,97338.30
2018-03-16T09:21:01.240Z,97333.70
2018-03-16T09:23:28.677Z,97340.16
2018-03-16T09:25:56.185Z,97336.80
2018-03-16T09:28:23.648Z,97332.11
2018-03-16T09:30:51.093Z,97338.45
2018-03-16T09:33:18.561Z,97336.57
2018-03-16T09:35:46.005Z,97343.31
2018-03-16T09:38:13.462Z,97342.33
2018-03-16T09:40:40.959Z,97338.97
2018-03-16T09:43:08.502Z,97343.25
2018-03-16T09:45:35.866Z,97344.47
2018-03-16T09:48:03.312Z,97352.95
2018-03-16T09:50:30.748Z,97348.75
2018-03-16T09:52:58.218Z,97342.55
2018-03-16T09:55:47.207Z,97347.61
2018-03-16T09:58:14.656Z,97354.75
2018-03-16T10:00:42.103Z,97354.58
2018-03-16T10:03:09.586Z,97352.02
2018-03-16T10:05:37.021Z,97348.90
2018-03-16T10:08:04.484Z,97343.97
2018-03-16T10:10:31.937Z,97350.23
2018-03-16T10:12:59.389Z,97357.55
2018-03-16T10:15:26.849Z,97354.41
2018-03-16T10:17:54.309Z,97352.86
2018-03-16T10:20:21.750Z,97359.45
2018-03-16T10:22:49.196Z,97367.59
2018-03-16T10:25:16.644Z,97358.05
2018-03-16T10:27:44.920Z,97360.84
2018-03-16T10:30:12.361Z,97359.54
2018-03-16T10:32:39.812Z,97363.80
2018-03-16T10:35:07.264Z,97362.33
2018-03-16T10:37:34.725Z,97362.90
2018-03-16T10:40:02.173Z,97363.03
2018-03-16T10:42:29.643Z,97354.52
2018-03-16T10:44:57.084Z,97352.25
2018-03-16T10:47:24.734Z,97355.06
2018-03-16T10:49:52.184Z,97354.65
2018-03-16T10:52:19.681Z,97359.90
2018-03-16T10:54:47.131Z,97358.69
2018-03-16T10:57:14.560Z,97362.95
2018-03-16T10:59:42.019Z,97359.00
2018-03-16T11:02:15.036Z,97357.84
2018-03-16T11:04:42.490Z,97357.97
2018-03-16T11:07:25.424Z,97366.77
2018-03-16T11:09:52.876Z,97365.73
2018-03-16T11:12:20.326Z,97363.43
2018-03-16T11:14:47.780Z,97365.78
2018-03-16T11:17:15.246Z,97374.17
2018-03-16T11:19:42.686Z,97372.26
2018-03-16T11:22:10.115Z,97377.54
2018-03-16T11:24:37.573Z,97381.92
2018-03-16T11:27:05.030Z,97380.43
2018-03-16T11:29:32.490Z,97393.08
2018-03-16T11:31:59.956Z,97386.89
2018-03-16T11:34:27.404Z,97395.01
2018-03-16T11:36:54.842Z,97398.59
2018-03-16T11:39:22.281Z,97391.36
2018-03-16T11:41:49.724Z,97395.96
2018-03-16T11:44:17.192Z,97403.77
2018-03-16T11:46:44.624Z,97398.88
2018-03-16T11:49:12.128Z,97403.02
2018-03-16T11:51:39.528Z,97397.83
2018-03-16T11:54:07.088Z,97407.70
2018-03-16T11:56:34.543Z,97398.10
2018-03-16T11:59:02.004Z,97393.51
2018-03-16T12:01:29.441Z,97397.47
2018-03-16T12:03:56.895Z,97406.94
2018-03-16T12:06:24.335Z,97387.86
2018-03-16T12:08:51.787Z,97384.38
2018-03-16T12:11:19.472Z,97398.42
2018-03-16T12:13:46.919Z,97390.83
2018-03-16T12:16:14.375Z,97392.88
2018-03-16T12:18:41.819Z,97393.55
2018-03-16T12:21:09.282Z,97386.73
2018-03-16T12:23:36.726Z,97393.06
2018-03-16T12:26:04.173Z,97390.20
2018-03-16T12:28:49.374Z,97398.44
2018-03-16T12:30:59.145Z,97388.27
2018-03-16T12:33:26.590Z,97396.08
2018-03-16T12:35:54.045Z,97389.36
2018-03-16T12:38:21.486Z,97384.02
2018-03-16T12:40:48.943Z,97387.47
2018-03-16T12:43:16.386Z,97379.59
2018-03-16T12:45:43.860Z,97370.62
2018-03-16T12:48:11.315Z,97370.94
2018-03-16T12:50:38.770Z,97375.59
2018-03-16T12:53:06.212Z,97371.95
2018-03-16T12:55:33.690Z,97366.97
2018-03-16T12:58:01.148Z,97368.60
2018-03-16T13:00:28.601Z,97367.52
2018-03-16T13:02:56.034Z,97370.14
2018-03-16T13:05:23.488Z,97364.52
2018-03-16T13:07:50.930Z,97356.87
2018-03-16T13:10:18.392Z,97353.35
2018-03-16T13:12:45.836Z,97348.16
2018-03-16T13:15:13.299Z,97352.58
2018-03-16T13:17:40.744Z,97344.53
2018-03-16T13:20:08.195Z,97347.98
2018-03-16T13:22:35.681Z,97347.83
2018-03-16T13:25:03.136Z,97335.55
2018-03-16T13:27:30.607Z,97338.37
2018-03-16T13:29:58.048Z,97340.42
2018-03-16T13:32:25.523Z,97332.36
2018-03-16T13:34:52.959Z,97331.33
2018-03-16T13:37:20.408Z,97331.91
2018-03-16T13:39:47.843Z,97329.83
2018-03-16T13:42:15.283Z,97334.78
2018-03-16T13:44:42.747Z,97334.98
2018-03-16T13:47:10.200Z,97337.04
2018-03-16T13:49:37.649Z,97325.73
2018-03-16T13:52:05.094Z,97329.38
2018-03-16T13:54:32.532Z,97328.46
2018-03-16T13:56:59.996Z,97335.83
2018-03-16T13:59:27.444Z,97337.22
2018-03-16T14:01:54.886Z,97325.55
2018-03-16T14:04:22.322Z,97323.51
2018-03-16T14:06:49.763Z,97328.31
2018-03-16T14:09:17.223Z,97327.94
2018-03-16T14:11:44.667Z,97316.36
2018-03-16T14:14:12.102Z,97324.98
2018-03-16T14:16:39.544Z,97318.91
2018-03-16T14:19:07.136Z,97320.49
2018-03-16T14:21:34.588Z,97321.13
2018-03-16T14:24:02.024Z,97326.27
2018-03-16T14:26:29.487Z,97325.02
2018-03-16T14:28:56.923Z,97324.17
2018-03-16T14:31:24.355Z,97318.45
2018-03-16T14:33:51.794Z,97325.31
2018-03-16T14:36:19.220Z,97325.73
2018-03-16T14:38:46.660Z,97323.98
2018-03-16T14:41:14.097Z,97321.80
2018-03-16T14:43:41.664Z,97325.92
2018-03-16T14:46:09.130Z,97335.80
2018-03-16T14:48:36.572Z,97333.52
2018-03-16T14:51:04.011Z,97337.03
2018-03-16T14:53:31.461Z,97343.38
2018-03-16T14:55:58.915Z,97335.88
2018-03-16T14:58:26.361Z,97337.70
2018-03-16T15:00:53.797Z,97336.34
2018-03-16T15:03:21.237Z,97335.34
2018-03-16T15:05:48.675Z,97334.84
2018-03-16T15:08:16.161Z,97322.80
2018-03-16T15:10:43.573Z,97324.39
2018-03-16T15:13:11.019Z,97322.97
2018-03-16T15:15:38.456Z,97326.89
2018-03-16T15:18:05.900Z,97322.44
2018-03-16T15:20:33.353Z,97325.45
2018-03-16T15:23:00.808Z,97319.57
2018-03-16T15:25:28.214Z,97321.69
2018-03-16T15:27:55.690Z,97311.66
2018-03-16T15:30:23.090Z,97313.27
2018-03-16T15:32:50.506Z,97314.80
2018-03-16T15:35:17.939Z,97314.72
2018-03-16T15:37:45.331Z,97305.75
2018-03-16T15:40:12.744Z,97302.36
2018-03-16T15:42:40.147Z,97298.02
2018-03-16T15:45:07.559Z,97302.48
2018-03-16T15:47:34.962Z,97297.36
2018-03-16T15:50:02.467Z,97302.92
2018-03-16T15:52:29.791Z,97304.97
2018-03-16T15:54:57.247Z,97298.55
2018-03-16T15:57:24.650Z,97302.56
2018-03-16T15:59:52.050Z,97300.30
2018-03-16T16:02:19.455Z,97305.26
2018-03-16T16:04:46.862Z,97298.75
2018-03-16T16:07:14.262Z,97297.95
2018-03-16T16:09:41.725Z,97291.23
2018-03-16T16:12:09.144Z,97298.18
2018-03-16T16:14:36.537Z,97295.78
2018-03-16T16:17:03.966Z,97291.99
2018-03-16T16:19:31.423Z,97294.41
2018-03-16T16:21:58.813Z,97299.41
2018-03-16T16:24:26.238Z,97295.73
2018-03-16T16:26:53.655Z,97300.75
2018-03-16T16:29:21.076Z,97295.67
2018-03-16T16:31:48.490Z,97290.87
2018-03-16T16:34:15.935Z,97292.23
2018-03-16T16:36:43.347Z,97290.69
2018-03-16T16:39:10.765Z,97293.06
2018-03-16T16:41:38.280Z,97296.23
2018-03-16T16:44:05.698Z,97290.27
2018-03-16T16:46:33.132Z,97300.73
2018-03-16T16:49:00.568Z,97303.14
2018-03-16T16:51:27.993Z,97302.25
2018-03-16T16:53:55.406Z,97311.59
2018-03-16T16:56:22.819Z,97313.46
2018-03-16T16:58:50.227Z,97312.83
2018-03-16T17:01:17.665Z,97312.94
2018-03-16T17:03:45.081Z,97319.14
2018-03-16T17:06:12.539Z,97311.22
2018-03-16T17:08:40.015Z,97314.75
2018-03-16T17:11:07.386Z,97314.15
2018-03-16T17:13:35.714Z,97324.03
2018-03-16T17:16:03.132Z,97315.41
2018-03-16T17:18:30.547Z,97322.95
2018-03-16T17:20:57.974Z,97324.76
2018-03-16T17:23:25.378Z,97330.75
2018-03-16T17:25:52.802Z,97337.31
2018-03-16T17:28:20.215Z,97340.75
2018-03-16T17:30:47.719Z,97336.38
2018-03-16T17:33:15.140Z,97343.63
2018-03-16T17:35:42.552Z,97343.63
2018-03-16T17:38:09.975Z,97347.82
2018-03-16T17:40:37.370Z,97348.66
2018-03-16T17:43:04.795Z,97357.31
2018-03-16T17:45:32.203Z,97348.02
2018-03-16T17:47:59.642Z,97354.34
2018-03-16T17:50:27.050Z,97356.37
2018-03-16T17:52:54.477Z,97358.34
2018-03-16T17:55:21.946Z,97357.45
2018-03-16T17:57:49.356Z,97362.77
2018-03-16T18:00:16.750Z,97372.56
2018-03-16T18:02:44.172Z,97364.67
2018-03-16T18:05:11.579Z,97368.64
2018-03-16T18:07:39.003Z,97367.80
2018-03-16T18:10:06.516Z,97374.80
2018-03-16T18:12:33.934Z,97367.87
2018-03-16T18:15:01.356Z,97376.77
2018-03-16T18:17:28.766Z,97375.77
2018-03-16T18:19:56.184Z,97373.64
2018-03-16T18:22:23.602Z,97371.78
2018-03-16T18:24:51.030Z,97376.27
2018-03-16T18:27:18.453Z,97371.43
2018-03-16T18:29:45.855Z,97370.77
2018-03-16T18:32:13.272Z,97374.52
2018-03-16T18:34:40.670Z,97379.06
2018-03-16T18:37:08.181Z,97376.54
2018-03-16T18:39:35.547Z,97379.75
2018-03-16T18:42:03.074Z,97384.05
2018-03-16T18:44:30.599Z,97386.23
2018-03-16T18:46:58.007Z,97389.98
2018-03-16T18:49:25.426Z,97395.23
2018-03-16T18:51:52.941Z,97394.45
2018-03-16T18:54:20.358Z,97395.09
2018-03-16T18:56:47.767Z,97400.10
2018-03-16T18:59:15.190Z,97398.54
2018-03-16T19:01:42.674Z,97399.08
2018-03-16T19:04:10.103Z,97394.45
2018-03-16T19:06:37.504Z,97400.16
2018-03-16T19:09:04.978Z,97402.13
2018-03-16T19:11:32.532Z,97394.59
2018-03-16T19:13:59.949Z,97388.16
2018-03-16T19:16:27.362Z,97395.37
2018-03-16T19:18:54.955Z,97399.00
2018-03-16T19:21:22.364Z,97398.54
2018-03-16T19:23:49.783Z,97402.55
2018-03-16T19:26:17.219Z,97399.30
2018-03-16T19:28:44.663Z,97406.92
2018-03-16T19:31:12.053Z,97399.75
2018-03-16T19:33:39.464Z,97401.51
2018-03-16T19:36:06.871Z,97395.70
2018-03-16T19:38:34.442Z,97395.84
2018-03-16T19:41:01.853Z,97397.31
2018-03-16T19:43:30.175Z,97406.20
2018-03-16T19:45:57.581Z,97402.20
2018-03-16T19:48:24.996Z,97412.09
2018-03-16T19:50:52.402Z,97406.27
2018-03-16T19:53:19.823Z,97413.05
2018-03-16T19:55:47.234Z,97411.75
2018-03-16T19:58:14.655Z,97412.59
2018-03-16T20:00:42.055Z,97403.81
2018-03-16T20:03:09.641Z,97400.20
2018-03-16T20:05:37.061Z,97390.23
2018-03-16T20:08:04.471Z,97397.06
2018-03-16T20:10:31.887Z,97397.17
2018-03-16T20:12:59.291Z,97392.24
2018-03-16T20:15:26.715Z,97389.20
2018-03-16T20:17:54.111Z,97394.63
2018-03-16T20:20:21.518Z,97394.73
2018-03-16T20:22:49.020Z,97389.86
2018-03-16T20:25:16.383Z,97380.78
2018-03-16T20:27:43.781Z,97385.09
2018-03-16T20:30:11.273Z,97385.87
2018-03-16T20:32:38.674Z,97389.22
2018-03-16T20:35:06.074Z,97394.09
2018-03-16T20:37:33.489Z,97396.02
2018-03-16T20:40:00.960Z,97397.54
2018-03-16T20:42:28.363Z,97396.69
2018-03-16T20:44:55.792Z,97398.72
2018-03-16T20:47:23.187Z,97402.41
2018-03-16T20:49:50.596Z,97401.22
2018-03-16T20:52:18.014Z,97407.62
2018-03-16T20:54:45.414Z,97400.07
2018-03-16T20:57:13.421Z,97396.21
2018-03-16T20:59:40.820Z,97403.36
2018-03-16T21:02:08.287Z,97396.70
2018-03-16T21:04:35.693Z,97398.41
2018-03-16T21:07:03.107Z,97397.59
2018-03-16T21:09:30.511Z,97395.72
2018-03-16T21:11:57.926Z,97394.33
2018-03-16T21:14:25.336Z,97395.28
2018-03-16T21:16:52.746Z,97393.33
2018-03-16T21:19:20.153Z,97403.31
2018-03-16T21:21:47.566Z,97401.90
2018-03-16T21:24:14.983Z,97397.54
2018-03-16T21:26:42.381Z,97402.72
2018-03-16T21:29:09.788Z,97393.60
2018-03-16T21:31:37.194Z,97382.39
2018-03-16T21:34:04.611Z,97380.25
2018-03-16T21:36:32.016Z,97381.66
2018-03-16T21:38:59.420Z,97377.72
2018-03-16T21:41:26.834Z,97377.59
2018-03-16T21:43:54.236Z,97372.59
2018-03-16T21:46:21.642Z,97374.98
2018-03-16T21:48:49.058Z,97376.33
2018-03-16T21:51:16.459Z,97380.05
2018-03-16T21:53:43.875Z,97381.84
2018-03-16T21:56:11.341Z,97378.20
2018-03-16T21:58:38.812Z,97381.41
2018-03-16T22:02:39.167Z,97372.55
2018-03-16T22:05:06.578Z,97374.36
2018-03-16T22:07:34.019Z,97371.16
2018-03-16T22:10:01.421Z,97369.34
2018-03-16T22:12:28.854Z,97370.15
2018-03-16T22:14:56.311Z,97372.94
2018-03-16T22:17:23.870Z,97377.38
2018-03-16T22:19:51.354Z,97378.37
2018-03-16T22:22:18.776Z,97374.54
2018-03-16T22:24:46.235Z,97372.81
2018-03-16T22:27:13.831Z,97369.92
2018-03-16T22:29:41.281Z,97363.69
2018-03-16T22:32:08.707Z,97369.31
2018-03-16T22:34:36.159Z,97373.84
2018-03-16T22:37:03.561Z,97375.52
2018-03-16T22:39:30.995Z,97374.55
2018-03-16T22:41:58.402Z,97370.94
2018-03-16T22:44:25.832Z,97373.27
2018-03-16T22:46:53.235Z,97373.52
2018-03-16T22:49:20.658Z,97368.06
2018-03-16T22:51:48.071Z,97362.38
2018-03-16T22:54:15.487Z,97366.38
2018-03-16T22:56:42.937Z,97357.08
2018-03-16T22:59:10.308Z,97357.83
2018-03-16T23:01:37.721Z,97357.33
2018-03-16T23:04:05.132Z,97344.88
2018-03-16T23:06:32.536Z,97337.91
2018-03-16T23:08:59.973Z,97340.73
2018-03-16T23:11:27.366Z,97337.08
2018-03-16T23:13:54.786Z,97343.95
2018-03-16T23:16:22.185Z,97343.50
2018-03-16T23:18:49.606Z,97349.28
2018-03-16T23:21:17.010Z,97350.70
2018-03-16T23:23:44.435Z,97350.39
2018-03-16T23:26:11.835Z,97348.91
2018-03-16T23:28:39.263Z,97344.56
2018-03-16T23:31:06.670Z,97338.38
2018-03-16T23:33:34.073Z,97342.45
2018-03-16T23:36:01.486Z,97339.80
2018-03-16T23:38:28.889Z,97340.58
2018-03-16T23:40:56.308Z,97343.55
2018-03-16T23:43:23.712Z,97337.45
2018-03-16T23:45:51.126Z,97334.98
2018-03-16T23:48:18.531Z,97335.03
2018-03-16T23:50:45.950Z,97330.66
2018-03-16T23:53:13.353Z,97335.42
2018-03-16T23:55:40.771Z,97332.70
2018-03-16T23:58:08.183Z,97332.43
